createdAt,value
2023-02-18T00:01:07.702Z,10.00
2023-02-18T00:03:53.430Z,10.00
2023-02-18T00:06:29.227Z,9.90
2023-02-18T00:09:02.310Z,9.80
2023-02-18T00:12:00.512Z,9.70
2023-02-18T00:14:45.294Z,9.70
2023-02-18T00:17:19.860Z,9.70
2023-02-18T00:19:52.500Z,9.60
2023-02-18T00:22:23.989Z,9.50
2023-02-18T00:25:01.144Z,9.50
2023-02-18T00:30:32.348Z,9.40
2023-02-18T00:33:03.236Z,9.40
2023-02-18T00:35:52.590Z,9.40
2023-02-18T00:38:52.777Z,9.40
2023-02-18T00:41:24.511Z,9.40
2023-02-18T00:44:32.960Z,9.30
2023-02-18T00:47:08.610Z,9.30
2023-02-18T00:49:40.970Z,9.30
2023-02-18T00:52:35.981Z,9.30
2023-02-18T00:55:19.170Z,9.30
2023-02-18T01:01:00.156Z,9.20
2023-02-18T01:03:32.624Z,9.30
2023-02-18T01:06:39.663Z,9.20
2023-02-18T01:09:12.951Z,9.20
2023-02-18T01:11:45.527Z,9.20
2023-02-18T01:17:07.375Z,9.20
2023-02-18T01:19:43.522Z,9.20
2023-02-18T01:22:13.104Z,9.20
2023-02-18T01:24:47.032Z,9.20
2023-02-18T01:27:22.696Z,9.20
2023-02-18T01:29:54.725Z,9.20
2023-02-18T01:32:33.271Z,9.20
2023-02-18T01:35:22.876Z,9.20
2023-02-18T01:38:06.561Z,9.20
2023-02-18T01:40:49.184Z,9.20
2023-02-18T01:43:33.631Z,9.20
2023-02-18T01:46:15.555Z,9.20
2023-02-18T01:49:11.329Z,9.20
2023-02-18T01:51:55.527Z,9.10
2023-02-18T01:54:27.701Z,9.20
2023-02-18T01:57:23.021Z,9.10
2023-02-18T01:59:55.934Z,9.20
2023-02-18T02:02:31.815Z,9.20
2023-02-18T02:05:24.248Z,9.20
2023-02-18T02:07:59.141Z,9.10
2023-02-18T02:10:32.724Z,9.20
2023-02-18T02:13:22.704Z,9.20
2023-02-18T02:15:56.981Z,9.20
2023-02-18T02:19:04.353Z,9.20
2023-02-18T02:21:56.069Z,9.20
2023-02-18T02:24:50.568Z,9.20
2023-02-18T02:27:31.167Z,9.20
2023-02-18T02:30:32.635Z,9.20
2023-02-18T02:33:32.444Z,9.20
2023-02-18T02:36:05.954Z,9.20
2023-02-18T02:38:41.187Z,9.20
2023-02-18T05:57:16.427Z,8.90
2023-02-18T06:00:07.731Z,8.90
2023-02-18T06:02:45.571Z,8.80
2023-02-18T06:05:26.396Z,9.00
2023-02-18T06:07:59.150Z,9.00
2023-02-18T06:10:42.137Z,9.00
2023-02-18T06:13:11.932Z,9.10
2023-02-18T06:15:58.183Z,9.10
2023-02-18T06:18:41.059Z,9.10
2023-02-18T06:21:16.092Z,9.10
2023-02-18T06:23:52.254Z,9.20
2023-02-18T06:26:31.812Z,9.20
2023-02-18T06:29:08.900Z,9.20
2023-02-18T06:31:57.598Z,9.20
2023-02-18T06:34:44.606Z,9.20
2023-02-18T06:37:33.407Z,9.20
2023-02-18T06:40:03.192Z,9.20
2023-02-18T06:43:00.345Z,9.10
2023-02-18T06:48:42.863Z,9.10
2023-02-18T06:51:34.137Z,9.20
2023-02-18T06:54:07.125Z,9.20
2023-02-18T06:56:54.707Z,9.20
2023-02-18T06:59:29.115Z,9.20
2023-02-18T07:01:58.451Z,9.10
2023-02-18T07:04:32.496Z,9.10
2023-02-18T07:07:04.535Z,9.10
2023-02-18T07:09:38.084Z,9.10
2023-02-18T07:12:15.373Z,9.10
2023-02-18T07:14:48.471Z,9.10
2023-02-18T07:17:31.170Z,9.10
2023-02-18T07:20:09.217Z,9.20
2023-02-18T07:22:46.883Z,9.10
2023-02-18T07:25:30.653Z,9.10
2023-02-18T07:28:23.751Z,9.10
2023-02-18T07:30:59.024Z,9.10
2023-02-18T07:33:36.081Z,9.20
2023-02-18T07:36:16.944Z,9.10
2023-02-18T07:39:05.877Z,9.10
2023-02-18T07:41:40.044Z,9.20
2023-02-18T07:44:27.103Z,9.20
2023-02-18T07:47:09.781Z,9.20
2023-02-18T07:49:40.559Z,9.20
2023-02-18T07:52:46.704Z,9.30
2023-02-18T07:55:33.633Z,9.30
2023-02-18T07:58:10.638Z,9.30
2023-02-18T08:00:58.102Z,9.40
2023-02-18T08:03:31.433Z,9.40
2023-02-18T08:06:11.066Z,9.40
2023-02-18T08:08:52.465Z,9.50
2023-02-18T08:11:50.877Z,9.50
2023-02-18T08:14:31.605Z,9.60
2023-02-18T08:17:12.444Z,9.70
2023-02-18T08:19:50.558Z,9.80
2023-02-18T08:22:24.912Z,9.90
2023-02-18T08:25:01.949Z,10.00
2023-02-18T08:27:41.290Z,10.10
2023-02-18T08:33:03.728Z,10.30
2023-02-18T08:35:34.761Z,10.40
2023-02-18T08:38:23.115Z,10.40
2023-02-18T08:41:13.014Z,10.50
2023-02-18T08:44:01.646Z,10.50
2023-02-18T08:46:38.860Z,10.60
2023-02-18T08:49:46.013Z,10.60
2023-02-18T08:52:23.404Z,10.60
2023-02-18T08:55:11.565Z,10.70
2023-02-18T09:00:43.269Z,10.70
2023-02-18T09:03:33.953Z,10.80
2023-02-18T09:08:55.478Z,10.80
2023-02-18T09:11:28.322Z,10.90
2023-02-18T09:14:13.755Z,10.90
2023-02-18T09:16:46.407Z,10.90
2023-02-18T09:19:16.408Z,10.90
2023-02-18T09:22:01.811Z,10.90
2023-02-18T09:24:48.270Z,11.00
2023-02-18T09:27:23.250Z,11.10
2023-02-18T09:30:08.108Z,11.10
2023-02-18T09:33:01.494Z,11.10
2023-02-18T09:35:56.668Z,11.10
2023-02-18T09:38:30.407Z,11.20
2023-02-18T09:41:18.833Z,11.20
2023-02-18T09:43:51.158Z,11.20
2023-02-18T09:46:33.631Z,11.30
2023-02-18T09:49:15.265Z,11.30
2023-02-18T09:51:59.203Z,11.30
2023-02-18T09:54:36.363Z,11.40
2023-02-18T09:57:08.756Z,11.50
2023-02-18T09:59:46.048Z,11.60
2023-02-18T10:02:38.929Z,11.70
2023-02-18T10:05:31.948Z,11.80
2023-02-18T10:08:05.920Z,11.90
2023-02-18T10:10:42.959Z,12.00
2023-02-18T10:16:05.458Z,12.10
2023-02-18T10:18:38.595Z,12.20
2023-02-18T10:21:18.882Z,12.20
2023-02-18T10:24:08.649Z,12.30
2023-02-18T10:26:42.687Z,12.40
2023-02-18T10:29:33.007Z,12.60
2023-02-18T10:32:15.991Z,12.60
2023-02-18T10:34:51.409Z,12.60
2023-02-18T10:37:53.837Z,12.60
2023-02-18T10:40:32.874Z,12.60
2023-02-18T10:46:40.664Z,12.60
2023-02-18T10:49:38.717Z,12.60
2023-02-18T10:52:22.767Z,12.60
2023-02-18T10:55:15.286Z,12.60
2023-02-18T10:58:11.761Z,12.70
2023-02-18T11:00:45.037Z,12.70
2023-02-18T11:03:29.794Z,12.70
2023-02-18T11:06:20.615Z,12.60
2023-02-18T11:09:11.362Z,12.60
2023-02-18T11:12:01.394Z,12.60
2023-02-18T11:14:46.776Z,12.60
2023-02-18T11:17:35.431Z,12.60
2023-02-18T11:20:27.123Z,12.60
2023-02-18T11:22:59.231Z,12.50
2023-02-18T11:25:44.526Z,12.50
2023-02-18T11:28:37.312Z,12.50
2023-02-18T11:31:22.826Z,12.50
2023-02-18T11:37:28.467Z,12.50
2023-02-18T11:40:03.845Z,12.50
2023-02-18T11:42:37.452Z,12.50
2023-02-18T11:45:30.429Z,12.50
2023-02-18T11:48:04.594Z,12.40
2023-02-18T11:50:43.623Z,12.30
2023-02-18T11:53:36.537Z,12.40
2023-02-18T11:56:24.570Z,12.40
2023-02-18T11:59:06.512Z,12.40
2023-02-18T12:02:09.877Z,12.30
2023-02-18T12:04:48.697Z,12.30
2023-02-18T12:07:48.084Z,12.30
2023-02-18T12:10:44.569Z,12.30
2023-02-18T12:13:26.892Z,12.40
2023-02-18T12:16:19.345Z,12.40
2023-02-18T12:19:06.020Z,12.50
2023-02-18T12:21:45.972Z,12.50
2023-02-18T12:24:25.008Z,12.50
2023-02-18T12:27:14.757Z,12.50
2023-02-18T12:30:02.669Z,12.50
2023-02-18T12:32:50.608Z,12.40
2023-02-18T12:35:55.337Z,12.40
2023-02-18T12:38:47.672Z,12.50
2023-02-18T12:41:32.872Z,12.50
2023-02-18T12:44:36.480Z,12.60
2023-02-18T12:47:29.091Z,12.60
2023-02-18T12:50:23.494Z,12.50
2023-02-18T12:53:15.266Z,12.40
2023-02-18T12:56:00.657Z,12.30
2023-02-18T12:58:47.022Z,12.20
2023-02-18T13:01:41.040Z,12.20
2023-02-18T13:04:36.857Z,12.30
2023-02-18T13:10:46.387Z,12.40
2023-02-18T13:13:24.788Z,12.40
2023-02-18T13:16:18.785Z,12.40
2023-02-18T13:19:19.448Z,12.30
2023-02-18T13:22:09.263Z,12.30
2023-02-18T13:24:46.868Z,12.30
2023-02-18T13:27:30.855Z,12.30
2023-02-18T13:30:24.784Z,12.30
2023-02-18T13:33:06.702Z,12.30
2023-02-18T13:35:49.258Z,12.30
2023-02-18T13:38:34.929Z,12.30
2023-02-18T13:41:14.557Z,12.30
2023-02-18T13:43:51.068Z,12.30
2023-02-18T13:46:30.757Z,12.40
2023-02-18T13:49:19.125Z,12.40
2023-02-18T13:51:56.046Z,12.30
2023-02-18T13:54:47.338Z,12.30
2023-02-18T13:57:23.655Z,12.30
2023-02-18T13:59:58.884Z,12.30
2023-02-18T14:02:50.450Z,12.30
2023-02-18T14:05:44.693Z,12.20
2023-02-18T14:08:26.723Z,12.20
2023-02-18T14:11:21.607Z,12.20
2023-02-18T14:14:08.064Z,12.20
2023-02-18T14:16:55.057Z,12.20
2023-02-18T14:19:48.902Z,12.10
2023-02-18T14:22:45.862Z,12.10
2023-02-18T14:25:42.026Z,12.10
2023-02-18T14:28:32.488Z,12.10
2023-02-18T14:31:13.483Z,12.00
2023-02-18T14:34:00.582Z,12.00
2023-02-18T14:36:39.347Z,12.00
2023-02-18T14:39:15.335Z,12.00
2023-02-18T14:42:00.595Z,12.10
2023-02-18T14:44:42.348Z,12.10
2023-02-18T14:47:28.833Z,12.10
2023-02-18T14:50:04.411Z,12.00
2023-02-18T14:53:02.955Z,12.00
2023-02-18T14:55:41.173Z,12.00
2023-02-18T14:58:21.514Z,12.00
2023-02-18T15:00:53.075Z,12.10
2023-02-18T15:03:29.852Z,12.00
2023-02-18T15:06:03.307Z,12.00
2023-02-18T15:08:47.817Z,11.90
2023-02-18T15:11:22.323Z,11.90
2023-02-18T15:14:09.571Z,11.80
2023-02-18T15:16:48.555Z,11.80
2023-02-18T15:19:28.877Z,11.70
2023-02-18T15:22:04.438Z,11.70
2023-02-18T15:24:50.151Z,11.70
2023-02-18T15:27:30.355Z,11.60
2023-02-18T15:30:30.353Z,11.60
2023-02-18T15:33:13.984Z,11.50
2023-02-18T15:36:03.149Z,11.50
2023-02-18T15:38:49.982Z,11.40
2023-02-18T15:41:24.725Z,11.40
2023-02-18T15:44:01.155Z,11.30
2023-02-18T15:46:38.635Z,11.30
2023-02-18T15:49:27.313Z,11.30
2023-02-18T15:52:06.143Z,11.20
2023-02-18T15:54:45.831Z,11.20
2023-02-18T15:57:19.538Z,11.20
2023-02-18T16:00:06.315Z,11.20
2023-02-18T16:03:06.224Z,11.20
2023-02-18T16:05:53.027Z,11.20
2023-02-18T16:08:35.898Z,11.20
2023-02-18T16:11:11.906Z,11.10
2023-02-18T16:13:55.114Z,11.10
2023-02-18T16:16:32.474Z,11.10
2023-02-18T16:19:14.004Z,11.10
2023-02-18T16:21:59.963Z,11.10
2023-02-18T16:24:33.728Z,11.10
2023-02-18T16:27:13.098Z,11.00
2023-02-18T16:29:55.572Z,11.00
2023-02-18T16:32:35.650Z,11.00
2023-02-18T16:35:17.881Z,11.00
2023-02-18T16:37:57.092Z,11.00
2023-02-18T16:40:35.203Z,10.90
2023-02-18T16:43:11.334Z,11.00
2023-02-18T16:45:49.787Z,10.90
2023-02-18T16:48:32.357Z,10.90
2023-02-18T16:53:59.760Z,10.90
2023-02-18T16:59:26.587Z,10.90
2023-02-18T17:02:07.523Z,10.90
2023-02-18T17:05:00.636Z,10.90
2023-02-18T17:07:56.652Z,10.90
2023-02-18T17:10:29.928Z,10.90
2023-02-18T17:13:12.998Z,10.90
2023-02-18T17:15:59.832Z,10.90
2023-02-18T17:18:33.761Z,10.90
2023-02-18T17:21:08.959Z,10.90
2023-02-18T17:23:55.360Z,10.90
2023-02-18T17:26:43.361Z,10.80
2023-02-18T17:29:12.965Z,10.80
2023-02-18T17:31:53.335Z,10.80
2023-02-18T17:34:32.003Z,10.80
2023-02-18T17:37:04.639Z,10.80
2023-02-18T17:39:43.044Z,10.80
2023-02-18T17:45:32.394Z,10.80
2023-02-18T17:48:15.271Z,10.70
2023-02-18T17:50:59.194Z,10.80
2023-02-18T17:53:38.284Z,10.70
2023-02-18T17:59:09.773Z,10.70
2023-02-18T18:01:49.292Z,10.60
2023-02-18T18:04:23.066Z,10.60
2023-02-18T18:06:54.726Z,10.60
2023-02-18T18:09:26.296Z,10.60
2023-02-18T18:11:58.079Z,10.50
2023-02-18T18:14:34.713Z,10.50
2023-02-18T18:17:20.780Z,10.50
2023-02-18T18:19:55.547Z,10.50
2023-02-18T18:22:29.116Z,10.50
2023-02-18T18:25:14.089Z,10.50
2023-02-18T18:27:59.987Z,10.50
2023-02-18T18:30:50.594Z,10.50
2023-02-18T18:33:30.793Z,10.50
2023-02-18T18:36:04.721Z,10.50
2023-02-18T18:38:50.206Z,10.50
2023-02-18T18:41:26.346Z,10.50
2023-02-18T18:44:00.751Z,10.50
2023-02-18T18:46:41.848Z,10.50
2023-02-18T18:49:19.435Z,10.40
2023-02-18T18:52:05.245Z,10.30
2023-02-18T18:54:43.339Z,10.30
2023-02-18T18:57:32.749Z,10.20
2023-02-18T19:00:16.567Z,10.20
2023-02-18T19:05:53.516Z,10.10
2023-02-18T19:08:25.983Z,10.10
2023-02-18T19:11:08.614Z,10.10
2023-02-18T19:13:42.676Z,10.10
2023-02-18T19:19:46.299Z,10.10
2023-02-18T19:22:19.073Z,10.10
2023-02-18T19:27:42.022Z,10.10
2023-02-18T19:30:14.769Z,10.00
2023-02-18T19:32:51.964Z,10.00
2023-02-18T19:35:43.860Z,10.00
2023-02-18T19:38:25.428Z,9.90
2023-02-18T19:41:09.598Z,9.90
2023-02-18T19:43:48.264Z,9.90
2023-02-18T19:46:22.894Z,9.90
2023-02-18T19:48:58.467Z,9.90
2023-02-18T19:51:35.176Z,9.90
2023-02-18T19:54:14.885Z,10.00
2023-02-18T19:59:34.643Z,10.00
2023-02-18T20:04:59.077Z,9.90
2023-02-18T20:07:42.589Z,9.90
2023-02-18T20:10:32.618Z,9.90
2023-02-18T20:22:03.647Z,9.90
2023-02-18T20:24:47.715Z,9.90
2023-02-18T20:27:28.799Z,9.90
2023-02-18T20:30:09.586Z,9.90
2023-02-18T20:32:39.695Z,9.90
2023-02-18T20:35:16.486Z,9.90
2023-02-18T20:37:48.826Z,9.90
2023-02-18T20:40:23.020Z,9.90
2023-02-18T20:42:54.417Z,9.90
2023-02-18T20:45:28.283Z,9.90
2023-02-18T20:47:57.778Z,9.90
2023-02-18T20:50:34.846Z,9.90
2023-02-18T20:53:05.947Z,9.90
2023-02-18T20:55:43.043Z,9.90
2023-02-18T20:58:15.296Z,9.90
2023-02-18T21:00:50.457Z,9.90
2023-02-18T21:03:20.126Z,9.90
2023-02-18T21:05:57.934Z,9.90
2023-02-18T21:08:37.463Z,9.90
2023-02-18T21:11:23.473Z,9.90
2023-02-18T21:13:58.581Z,9.90
2023-02-18T21:16:35.443Z,9.90
2023-02-18T21:19:09.765Z,9.90
2023-02-18T21:21:58.724Z,9.90
2023-02-18T21:24:35.381Z,9.90
2023-02-18T21:27:09.294Z,9.90
2023-02-18T21:29:48.043Z,9.80
2023-02-18T21:32:27.613Z,9.80
2023-02-18T21:34:58.650Z,9.80
2023-02-18T21:37:31.747Z,9.80
2023-02-18T21:40:05.926Z,9.80
2023-02-18T21:42:44.149Z,9.80
2023-02-18T21:45:38.097Z,9.80
2023-02-18T21:48:36.976Z,9.80
2023-02-18T21:51:45.265Z,9.80
2023-02-18T21:54:23.819Z,9.80
2023-02-18T21:57:03.008Z,9.80
2023-02-18T21:59:43.733Z,9.80
2023-02-18T22:02:21.472Z,9.80
2023-02-18T22:04:55.169Z,9.80
2023-02-18T22:07:32.054Z,9.80
2023-02-18T22:10:03.724Z,9.80
2023-02-18T22:12:35.981Z,9.80
2023-02-18T22:15:05.591Z,9.90
2023-02-18T22:17:40.177Z,9.90
2023-02-18T22:20:38.562Z,9.90
2023-02-18T22:23:13.834Z,10.00
2023-02-18T22:25:45.033Z,10.00
2023-02-18T22:28:19.343Z,10.00
2023-02-18T22:30:52.336Z,10.00
2023-02-18T22:33:39.788Z,10.00
2023-02-18T22:36:16.546Z,10.00
2023-02-18T22:38:49.381Z,10.00
2023-02-18T22:41:24.751Z,10.00
2023-02-18T22:44:00.749Z,10.00
2023-02-18T22:46:34.662Z,10.00
2023-02-18T22:49:06.672Z,9.90
2023-02-18T22:51:46.671Z,9.90
2023-02-18T22:54:21.137Z,9.90
2023-02-18T22:57:00.447Z,9.90
2023-02-18T22:59:38.190Z,9.90
2023-02-18T23:02:12.969Z,9.90
2023-02-18T23:04:44.626Z,9.90
2023-02-18T23:07:26.131Z,9.80
2023-02-18T23:09:59.828Z,9.80
2023-02-18T23:12:29.432Z,9.80
2023-02-18T23:15:03.266Z,9.80
2023-02-18T23:17:40.958Z,9.80
2023-02-18T23:20:40.644Z,9.80
2023-02-18T23:23:24.791Z,9.80
2023-02-18T23:26:02.711Z,9.80
2023-02-18T23:29:00.031Z,9.80
2023-02-18T23:31:46.188Z,9.80
2023-02-18T23:34:26.064Z,9.80
2023-02-18T23:36:59.387Z,9.80
2023-02-18T23:39:43.191Z,9.80
2023-02-18T23:42:16.157Z,9.80
2023-02-18T23:44:51.681Z,9.80
2023-02-18T23:47:38.121Z,9.80
2023-02-18T23:50:13.168Z,9.70
2023-02-18T23:52:44.632Z,9.80
2023-02-18T23:55:26.413Z,9.80
2023-02-18T23:57:58.220Z,9.70
